Salem, Florida
Current Conditions -  °F | °C
As of 7:35 AM on Monday 26 Jan 2015 (Local Time) from K40J Reporting Station
Clear Clear  
Wind Chill: 44°   Ceiling: Unl
Heat Index: 48°   Visibility: 10mi
Dew Point: 45°   Wind: 8mph
Humidity: 89%   Direction: 280°W
Pressure: 29.89"   Gusts: NA
Location:  29.89°N, 83.41°W
Report Text: K40J 261235Z AUTO 28007KT 10SM CLR 09/07 A2989 RMK AO2 T00880071
Loading
Personal Weather Stations






























Interactive Weather Map New forecast layout! Learn more

10-Day Weather Forecast

Advertisements
Track Severe Weather on mobile